Time;durP1;ratioP1;P1;durP2;ratioP2;P2;SDS_P1;SDS_P2;PMS_P1;PMS_P2;Temp;Humidity;BMP_temperature;BMP_pressure;BME280_temperature;BME280_humidity;BME280_pressure;Samples;Min_cycle;Max_cycle;Signal;HPM_P1;HPM_P2
2022/05/22 00:01:26;;;;;;;4.65;3.55;;;12.30;99.90;;;;;;4998664;28;20643;-44
2022/05/22 00:03:54;;;;;;;4.97;4.30;;;12.30;99.90;;;;;;4998412;28;20527;-41
2022/05/22 00:06:21;;;;;;;4.18;3.58;;;12.30;99.90;;;;;;4998444;28;20244;-42
2022/05/22 00:08:48;;;;;;;4.40;4.00;;;12.30;99.90;;;;;;4998839;28;20515;-43
2022/05/22 00:11:16;;;;;;;7.68;3.10;;;12.30;99.90;;;;;;4998006;28;20237;-42
2022/05/22 00:13:43;;;;;;;4.47;4.10;;;12.40;99.90;;;;;;4998061;28;20210;-42
2022/05/22 00:18:56;;;;;;;4.28;3.80;;;12.70;99.90;;;;;;4998327;28;20531;-42
2022/05/22 00:21:24;;;;;;;4.53;3.78;;;12.80;99.90;;;;;;4998000;28;20552;-41
2022/05/22 00:23:51;;;;;;;8.18;4.03;;;12.90;99.90;;;;;;5002875;28;20238;-42
2022/05/22 00:26:19;;;;;;;3.45;3.00;;;12.80;99.90;;;;;;5008988;28;20209;-43
2022/05/22 00:28:46;;;;;;;5.55;3.30;;;12.70;99.90;;;;;;5009674;28;20280;-42
2022/05/22 00:31:13;;;;;;;5.60;3.67;;;12.70;99.90;;;;;;5016757;28;20429;-44
2022/05/22 00:33:41;;;;;;;3.92;3.53;;;12.90;99.90;;;;;;5009230;28;20237;-44
2022/05/22 00:36:08;;;;;;;5.63;4.07;;;12.90;99.90;;;;;;5000096;28;20607;-49
2022/05/22 00:38:36;;;;;;;4.63;3.95;;;13.00;99.90;;;;;;4998011;28;20300;-43
2022/05/22 00:41:04;;;;;;;3.75;3.45;;;12.90;99.90;;;;;;4997862;28;20264;-43
2022/05/22 00:43:34;;;;;;;9.70;5.22;;;12.90;99.90;;;;;;4999380;28;20201;-41
2022/05/22 00:46:04;;;;;;;9.73;4.35;;;12.80;99.90;;;;;;4999026;28;20284;-42
2022/05/22 00:48:33;;;;;;;8.52;4.20;;;12.80;99.90;;;;;;4998024;28;20198;-42
2022/05/22 00:51:32;;;;;;;3.60;3.30;;;12.90;99.90;;;;;;4997919;28;20232;-42
2022/05/22 00:54:27;;;;;;;4.38;3.97;;;12.80;99.90;;;;;;4981080;28;20216;-43
2022/05/22 00:57:01;;;;;;;4.95;3.35;;;12.60;99.90;;;;;;4997661;28;20456;-43
2022/05/22 00:59:36;;;;;;;4.28;3.60;;;12.50;99.90;;;;;;4997485;28;20205;-45
2022/05/22 01:02:04;;;;;;;4.18;3.75;;;12.30;99.90;;;;;;4997276;28;20235;-45
2022/05/22 01:04:33;;;;;;;7.57;3.65;;;12.30;99.90;;;;;;4997216;28;20520;-43
2022/05/22 01:07:04;;;;;;;3.85;3.10;;;12.20;99.90;;;;;;4997542;28;20219;-42
2022/05/22 01:09:31;;;;;;;4.53;3.65;;;12.00;99.90;;;;;;4996213;28;20239;-44
2022/05/22 01:12:06;;;;;;;4.65;3.83;;;11.90;99.90;;;;;;4996805;28;20238;-42
2022/05/22 01:14:35;;;;;;;10.30;3.95;;;11.90;99.90;;;;;;4997252;28;20213;-44
2022/05/22 01:17:04;;;;;;;4.38;3.95;;;11.90;99.90;;;;;;4996368;28;20239;-43
2022/05/22 01:19:31;;;;;;;5.45;4.40;;;11.80;99.90;;;;;;4997340;28;20209;-41
2022/05/22 01:22:01;;;;;;;4.10;3.80;;;11.80;99.90;;;;;;4996823;28;20292;-43
2022/05/22 01:24:28;;;;;;;5.35;4.28;;;11.70;99.90;;;;;;4996866;28;20440;-43
2022/05/22 01:27:01;;;;;;;8.88;4.20;;;11.70;99.90;;;;;;4996925;28;20405;-44
2022/05/22 01:29:28;;;;;;;5.05;4.53;;;11.70;99.90;;;;;;4997062;28;20212;-43
2022/05/22 01:31:55;;;;;;;4.07;3.40;;;11.80;99.90;;;;;;4996586;28;20239;-43
2022/05/22 01:34:23;;;;;;;3.90;3.60;;;11.70;99.90;;;;;;4996858;28;20575;-46
2022/05/22 01:36:53;;;;;;;4.28;3.88;;;11.70;99.90;;;;;;4996178;28;20555;-44
2022/05/22 01:39:21;;;;;;;5.78;5.18;;;11.70;99.90;;;;;;5005165;28;20206;-42
2022/05/22 01:41:48;;;;;;;8.75;4.97;;;11.60;99.90;;;;;;5005055;28;20228;-43
2022/05/22 01:44:15;;;;;;;5.82;4.38;;;11.50;99.90;;;;;;5006433;28;20215;-42
2022/05/22 01:46:43;;;;;;;4.50;4.05;;;11.50;99.90;;;;;;5002737;28;20392;-45
2022/05/22 01:49:10;;;;;;;6.80;4.53;;;11.50;99.90;;;;;;4998296;28;20239;-42
2022/05/22 01:51:42;;;;;;;5.25;4.85;;;11.50;99.90;;;;;;5007782;28;20236;-44
2022/05/22 01:54:09;;;;;;;4.00;3.60;;;11.50;99.90;;;;;;5015805;28;20207;-45
2022/05/22 01:56:37;;;;;;;6.60;4.50;;;11.50;99.90;;;;;;5007276;28;20298;-44
2022/05/22 01:59:05;;;;;;;5.68;4.78;;;11.50;99.90;;;;;;5007305;28;20520;-42
2022/05/22 02:01:33;;;;;;;4.07;3.67;;;11.50;99.90;;;;;;5004417;28;20419;-41
2022/05/22 02:04:00;;;;;;;4.32;4.05;;;11.50;99.90;;;;;;5011875;28;20585;-43
2022/05/22 02:06:28;;;;;;;4.30;4.00;;;11.60;99.90;;;;;;5004670;28;20208;-42
2022/05/22 02:08:56;;;;;;;4.63;4.10;;;11.40;99.90;;;;;;5011608;28;20212;-42
2022/05/22 02:11:23;;;;;;;9.50;5.30;;;11.40;99.90;;;;;;5015393;28;20239;-43
2022/05/22 02:13:51;;;;;;;4.25;3.38;;;11.50;99.90;;;;;;5016237;28;20211;-42
2022/05/22 02:16:18;;;;;;;6.63;4.20;;;11.50;99.90;;;;;;5014042;28;20266;-45
2022/05/22 02:18:46;;;;;;;3.85;3.55;;;11.60;99.90;;;;;;5011193;28;20250;-42
2022/05/22 02:21:13;;;;;;;7.25;5.85;;;11.70;99.90;;;;;;5013508;28;20470;-42
2022/05/22 02:23:40;;;;;;;4.18;3.85;;;11.70;99.90;;;;;;5002481;28;20230;-43
2022/05/22 02:26:11;;;;;;;6.80;4.15;;;11.70;99.90;;;;;;4996601;28;20204;-42
2022/05/22 02:28:40;;;;;;;4.10;3.38;;;11.70;99.90;;;;;;4995064;28;20232;-45
2022/05/22 02:31:07;;;;;;;3.85;3.30;;;11.70;99.90;;;;;;4995313;28;20228;-42
2022/05/22 02:33:35;;;;;;;3.53;3.25;;;11.70;99.90;;;;;;4995720;28;20225;-44
2022/05/22 02:36:06;;;;;;;5.13;4.05;;;11.60;99.90;;;;;;4995954;28;20536;-42
2022/05/22 02:38:35;;;;;;;6.97;4.57;;;11.50;99.90;;;;;;4995961;28;20266;-44
2022/05/22 02:41:15;;;;;;;4.80;4.30;;;11.50;99.90;;;;;;4996182;28;20295;-41
2022/05/22 02:43:43;;;;;;;6.85;4.50;;;11.30;99.90;;;;;;4996101;28;20188;-44
2022/05/22 02:46:17;;;;;;;7.20;4.97;;;11.40;99.90;;;;;;4995969;28;20527;-41
2022/05/22 02:48:45;;;;;;;7.20;4.55;;;11.50;99.90;;;;;;4996454;28;20247;-42
2022/05/22 02:51:19;;;;;;;8.00;5.97;;;11.40;99.90;;;;;;4995944;28;20246;-42
2022/05/22 02:53:46;;;;;;;5.55;4.53;;;11.40;99.90;;;;;;4996037;28;20343;-41
2022/05/22 02:56:19;;;;;;;3.80;3.50;;;11.40;99.90;;;;;;4995760;28;20303;-43
2022/05/22 02:58:46;;;;;;;5.65;4.50;;;11.40;99.90;;;;;;4989433;28;20301;-42
2022/05/22 03:01:13;;;;;;;5.88;4.80;;;11.50;99.90;;;;;;4994155;28;20243;-42
2022/05/22 03:03:41;;;;;;;4.78;4.35;;;11.50;99.90;;;;;;4976999;28;20209;-44
2022/05/22 03:08:54;;;;;;;5.55;4.80;;;11.60;99.90;;;;;;4997353;28;20223;-42
2022/05/22 03:11:22;;;;;;;7.68;5.05;;;11.60;99.90;;;;;;4996899;28;20244;-42
2022/05/22 03:13:49;;;;;;;8.55;4.43;;;11.80;99.90;;;;;;4996039;28;20209;-43
2022/05/22 03:16:17;;;;;;;6.38;5.18;;;11.90;99.90;;;;;;4996073;28;20237;-42
2022/05/22 03:18:45;;;;;;;8.85;5.80;;;11.90;99.90;;;;;;4995717;28;20209;-42
2022/05/22 03:21:13;;;;;;;6.40;4.28;;;12.00;99.90;;;;;;4995529;28;20396;-42
2022/05/22 03:23:40;;;;;;;7.65;4.80;;;12.10;99.90;;;;;;4996040;28;20276;-43
2022/05/22 03:26:09;;;;;;;4.25;3.83;;;12.10;99.90;;;;;;4995891;28;20205;-42
2022/05/22 03:28:37;;;;;;;4.90;4.13;;;12.30;99.90;;;;;;4996034;28;20206;-40
2022/05/22 03:31:05;;;;;;;8.82;5.63;;;12.20;99.90;;;;;;4995145;28;20238;-41
2022/05/22 03:33:32;;;;;;;3.88;3.58;;;12.40;99.90;;;;;;4995472;28;20255;-41
2022/05/22 03:36:00;;;;;;;5.15;3.90;;;12.50;99.90;;;;;;4995758;28;20276;-42
2022/05/22 03:38:27;;;;;;;8.20;4.50;;;12.50;99.90;;;;;;4996521;28;20277;-42
2022/05/22 03:40:55;;;;;;;8.20;4.10;;;12.40;99.90;;;;;;4999290;28;20296;-42
2022/05/22 03:43:22;;;;;;;5.13;3.33;;;12.40;99.90;;;;;;4999179;28;20206;-41
2022/05/22 03:45:50;;;;;;;3.80;3.35;;;12.40;99.90;;;;;;4999398;28;20216;-42
2022/05/22 03:48:18;;;;;;;3.75;3.45;;;12.40;99.90;;;;;;4998889;28;20277;-42
2022/05/22 03:50:48;;;;;;;6.20;3.63;;;12.40;99.90;;;;;;4999797;28;20553;-42
2022/05/22 03:53:16;;;;;;;3.90;2.78;;;12.40;99.90;;;;;;5004490;28;20236;-44
2022/05/22 03:55:43;;;;;;;3.92;3.45;;;12.50;99.90;;;;;;5002189;28;20605;-42
2022/05/22 03:58:11;;;;;;;6.15;3.25;;;12.50;99.90;;;;;;5001270;28;20585;-42
2022/05/22 04:00:38;;;;;;;2.92;2.72;;;12.60;99.90;;;;;;4999140;28;20206;-43
2022/05/22 04:03:06;;;;;;;5.65;2.60;;;12.60;99.90;;;;;;4998537;28;20209;-42
2022/05/22 04:05:33;;;;;;;6.70;3.30;;;12.70;99.90;;;;;;4999260;28;20203;-43
2022/05/22 04:08:01;;;;;;;3.15;2.85;;;12.80;99.90;;;;;;4998759;28;20573;-44
2022/05/22 04:10:28;;;;;;;6.97;3.90;;;12.90;99.90;;;;;;4998855;28;20592;-43
2022/05/22 04:12:55;;;;;;;3.70;2.63;;;13.00;99.90;;;;;;5013473;28;20235;-45
2022/05/22 04:15:22;;;;;;;5.43;2.70;;;13.10;99.90;;;;;;5009251;28;20246;-43
2022/05/22 04:17:50;;;;;;;6.63;2.97;;;13.20;99.90;;;;;;5012369;28;20466;-43
2022/05/22 04:20:19;;;;;;;9.43;2.80;;;13.30;99.90;;;;;;5002986;28;20419;-42
2022/05/22 04:25:33;;;;;;;2.10;1.95;;;13.40;99.90;;;;;;5005584;28;20205;-44
2022/05/22 04:28:00;;;;;;;2.63;2.28;;;13.40;99.90;;;;;;4993838;28;20209;-43
2022/05/22 04:30:28;;;;;;;2.38;2.00;;;13.30;99.90;;;;;;4978415;28;20513;-43
2022/05/22 04:32:55;;;;;;;4.60;2.10;;;13.20;99.90;;;;;;4978707;28;20229;-40
2022/05/22 04:35:23;;;;;;;3.55;2.50;;;13.10;99.90;;;;;;4984787;28;20276;-43
2022/05/22 04:37:50;;;;;;;3.80;3.28;;;13.00;99.90;;;;;;5004632;28;20252;-43
2022/05/22 04:40:17;;;;;;;4.43;2.72;;;12.90;99.90;;;;;;5001085;28;20209;-43
2022/05/22 04:42:44;;;;;;;4.05;2.92;;;12.90;99.90;;;;;;5009795;28;20224;-46
2022/05/22 04:45:12;;;;;;;4.53;3.03;;;13.00;99.90;;;;;;5016361;28;20465;-43
2022/05/22 04:47:41;;;;;;;2.63;2.45;;;13.20;99.90;;;;;;5008892;28;20247;-46
2022/05/22 04:50:10;;;;;;;3.33;2.75;;;13.30;99.90;;;;;;5016270;28;20382;-42
2022/05/22 04:52:37;;;;;;;2.42;2.30;;;13.50;99.90;;;;;;5016881;28;20309;-44
2022/05/22 04:55:07;;;;;;;3.00;2.78;;;13.60;99.90;;;;;;5018264;28;20209;-42
2022/05/22 04:57:34;;;;;;;3.67;2.30;;;13.80;99.90;;;;;;5017135;28;20312;-42
2022/05/22 05:00:09;;;;;;;3.40;3.08;;;14.10;99.90;;;;;;5017567;28;20522;-42
2022/05/22 05:02:37;;;;;;;2.70;2.50;;;14.60;99.90;;;;;;4979357;28;20232;-42
2022/05/22 05:05:08;;;;;;;2.97;2.70;;;14.80;99.90;;;;;;4987155;28;20201;-39
2022/05/22 05:07:37;;;;;;;6.57;2.60;;;14.90;99.90;;;;;;4997604;28;20223;-42
2022/05/22 05:10:07;;;;;;;4.60;2.50;;;15.20;99.90;;;;;;4996826;28;20217;-40
2022/05/22 05:12:39;;;;;;;2.50;2.25;;;15.40;99.90;;;;;;4997449;28;20445;-42
2022/05/22 05:15:13;;;;;;;2.30;2.10;;;15.40;99.90;;;;;;4997438;28;20240;-42
2022/05/22 05:17:42;;;;;;;3.45;2.30;;;15.60;99.90;;;;;;4998507;28;20229;-42
2022/05/22 05:20:11;;;;;;;3.83;2.92;;;15.60;99.90;;;;;;4999048;28;20205;-41
2022/05/22 05:22:40;;;;;;;2.58;2.38;;;15.70;99.90;;;;;;4997576;28;20226;-41
2022/05/22 05:25:07;;;;;;;2.83;2.40;;;15.90;99.90;;;;;;4998083;28;20412;-41
2022/05/22 05:27:34;;;;;;;2.73;2.50;;;16.10;99.90;;;;;;4997216;28;20418;-44
2022/05/22 05:30:06;;;;;;;7.95;2.22;;;16.20;99.90;;;;;;4998416;28;20426;-42
2022/05/22 05:32:36;;;;;;;5.55;3.33;;;16.40;99.90;;;;;;4997076;28;20279;-45
2022/05/22 05:35:07;;;;;;;6.40;3.03;;;16.50;99.90;;;;;;4997757;28;20223;-41
2022/05/22 05:37:36;;;;;;;2.23;2.13;;;16.60;99.90;;;;;;4997604;28;20480;-41
2022/05/22 05:40:03;;;;;;;2.67;2.47;;;16.60;99.90;;;;;;4996020;28;20599;-42
2022/05/22 05:42:32;;;;;;;3.13;2.33;;;16.50;99.90;;;;;;4996649;28;20542;-43
2022/05/22 05:45:02;;;;;;;4.57;2.30;;;16.40;99.90;;;;;;4996977;28;20411;-43
2022/05/22 05:47:30;;;;;;;2.80;2.13;;;16.50;99.90;;;;;;4996501;28;20914;-41
2022/05/22 05:49:57;;;;;;;2.70;2.10;;;16.60;99.90;;;;;;5001082;28;20464;-44
2022/05/22 05:52:25;;;;;;;2.80;1.80;;;16.90;99.90;;;;;;5004805;28;20436;-42
2022/05/22 05:55:10;;;;;;;1.87;1.77;;;17.10;99.90;;;;;;5004648;28;20428;-39
2022/05/22 05:57:37;;;;;;;4.10;2.60;;;16.80;99.90;;;;;;5009827;28;20839;-43
2022/05/22 06:00:09;;;;;;;1.43;1.33;;;16.60;99.90;;;;;;5016206;28;20489;-42
2022/05/22 06:02:36;;;;;;;1.57;1.47;;;16.40;99.90;;;;;;5016417;28;20852;-43
2022/05/22 06:05:04;;;;;;;3.53;1.67;;;16.10;99.90;;;;;;4996101;28;20584;-46
2022/05/22 06:07:32;;;;;;;2.58;1.40;;;16.00;99.90;;;;;;4984364;28;20446;-43
2022/05/22 06:09:59;;;;;;;1.90;1.27;;;16.00;99.90;;;;;;4977100;28;20210;-43
2022/05/22 06:12:26;;;;;;;1.20;1.10;;;16.10;99.90;;;;;;4978329;28;20455;-44
2022/05/22 06:14:53;;;;;;;1.87;1.40;;;16.30;99.90;;;;;;4978800;28;20446;-44
2022/05/22 06:17:36;;;;;;;1.57;1.47;;;16.50;99.90;;;;;;4976454;28;20702;-42
2022/05/22 06:20:06;;;;;;;3.20;1.17;;;16.70;99.90;;;;;;4976355;28;20416;-45
2022/05/22 06:22:34;;;;;;;2.00;1.50;;;17.20;99.90;;;;;;4976390;28;20853;-42
2022/05/22 06:25:07;;;;;;;3.20;1.90;;;17.40;99.90;;;;;;4976687;28;20434;-42
2022/05/22 06:27:34;;;;;;;1.70;1.17;;;17.60;99.90;;;;;;4976722;28;20453;-43
2022/05/22 06:30:03;;;;;;;3.30;1.63;;;18.30;99.90;;;;;;4977962;28;20496;-43
2022/05/22 06:32:30;;;;;;;3.07;1.50;;;18.80;99.90;;;;;;4995797;28;20727;-41
2022/05/22 06:34:59;;;;;;;1.90;1.50;;;19.10;99.90;;;;;;4996474;28;20785;-43
2022/05/22 06:37:26;;;;;;;6.10;1.27;;;18.90;99.90;;;;;;4978753;28;20485;-43
2022/05/22 06:39:54;;;;;;;6.30;1.80;;;18.40;99.90;;;;;;4995788;28;20797;-43
2022/05/22 06:42:26;;;;;;;1.10;0.80;;;17.90;99.90;;;;;;4994684;28;20490;-43
2022/05/22 06:45:01;;;;;;;2.93;1.57;;;17.50;99.90;;;;;;4995873;28;20780;-49
2022/05/22 06:47:29;;;;;;;1.20;1.10;;;17.60;99.90;;;;;;4979627;28;20482;-43
2022/05/22 06:49:58;;;;;;;1.10;1.00;;;18.50;99.90;;;;;;4996566;28;20413;-44
2022/05/22 06:52:25;;;;;;;1.53;1.43;;;19.20;99.90;;;;;;4979342;28;20526;-44
2022/05/22 06:54:56;;;;;;;1.90;1.37;;;19.40;99.90;;;;;;4996516;28;20435;-43
2022/05/22 06:57:23;;;;;;;1.07;0.80;;;20.20;99.90;;;;;;4995732;28;20680;-41
2022/05/22 06:59:55;;;;;;;2.40;1.00;;;20.70;99.90;;;;;;4995950;28;20529;-44
2022/05/22 07:02:23;;;;;;;3.40;1.17;;;19.90;99.90;;;;;;4996092;28;20438;-43
2022/05/22 07:04:51;;;;;;;1.80;1.13;;;20.20;99.90;;;;;;4995666;28;20414;-40
2022/05/22 07:07:18;;;;;;;2.20;1.17;;;20.10;99.90;;;;;;4995314;28;20424;-47
2022/05/22 07:09:45;;;;;;;1.23;1.13;;;21.60;99.90;;;;;;4995384;28;20429;-41
2022/05/22 07:12:13;;;;;;;2.97;1.50;;;23.50;99.90;;;;;;4986537;28;20637;-42
2022/05/22 07:14:40;;;;;;;3.47;1.60;;;24.50;99.90;;;;;;4983637;28;20768;-42
2022/05/22 07:17:10;;;;;;;2.60;1.13;;;26.10;96.30;;;;;;4989814;28;20460;-47
2022/05/22 07:19:37;;;;;;;1.60;1.50;;;25.60;95.80;;;;;;4980414;28;20436;-42
2022/05/22 07:22:06;;;;;;;3.87;2.07;;;25.70;94.20;;;;;;4979211;28;20514;-43
2022/05/22 07:24:34;;;;;;;2.67;1.07;;;26.40;92.30;;;;;;4979802;28;20497;-43
2022/05/22 07:27:02;;;;;;;4.33;1.27;;;26.50;91.10;;;;;;4979777;28;20859;-45
2022/05/22 07:29:29;;;;;;;2.20;0.90;;;25.60;92.80;;;;;;4979543;28;20444;-46
2022/05/22 07:32:00;;;;;;;2.60;1.47;;;23.90;93.70;;;;;;4979064;28;20449;-44
2022/05/22 07:34:28;;;;;;;1.37;1.27;;;22.90;95.90;;;;;;4978513;28;20511;-45
2022/05/22 07:36:57;;;;;;;5.60;1.17;;;22.10;97.20;;;;;;4979707;28;20419;-46
2022/05/22 07:39:25;;;;;;;1.77;1.03;;;21.10;98.90;;;;;;4979035;28;20482;-45
2022/05/22 07:41:53;;;;;;;1.23;1.17;;;20.80;99.90;;;;;;4979538;28;20465;-44
2022/05/22 07:44:20;;;;;;;4.43;2.67;;;21.00;99.90;;;;;;4979283;28;20446;-44
2022/05/22 07:46:49;;;;;;;1.73;1.30;;;21.30;99.90;;;;;;4979417;28;20420;-44
2022/05/22 07:52:09;;;;;;;2.10;1.37;;;20.50;99.90;;;;;;4979924;28;20479;-45
2022/05/22 07:54:47;;;;;;;1.00;1.00;;;20.50;99.90;;;;;;4980246;28;20451;-45
2022/05/22 07:57:15;;;;;;;1.17;1.10;;;20.20;99.90;;;;;;4979607;28;20419;-43
2022/05/22 07:59:42;;;;;;;5.07;1.07;;;20.00;99.90;;;;;;4979320;28;20442;-42
2022/05/22 08:02:14;;;;;;;1.40;1.20;;;19.70;99.90;;;;;;4979034;28;20438;-42
2022/05/22 08:04:43;;;;;;;2.70;1.20;;;19.50;99.90;;;;;;4986060;28;20643;-41
2022/05/22 08:07:11;;;;;;;1.53;1.30;;;19.30;99.90;;;;;;4998351;28;20443;-40
2022/05/22 08:09:39;;;;;;;0.90;0.90;;;19.30;99.90;;;;;;4998583;28;20418;-44
2022/05/22 08:12:06;;;;;;;1.47;1.37;;;20.10;99.90;;;;;;4997532;28;20475;-43
2022/05/22 08:14:34;;;;;;;1.70;1.30;;;21.20;99.90;;;;;;4998145;28;20414;-44
2022/05/22 08:17:03;;;;;;;0.93;0.90;;;21.80;99.90;;;;;;4989789;28;20434;-48
2022/05/22 08:19:31;;;;;;;0.90;0.90;;;22.10;99.90;;;;;;4978775;28;20586;-40
2022/05/22 08:21:58;;;;;;;1.20;0.83;;;22.10;99.90;;;;;;4978824;28;20435;-44
2022/05/22 08:24:25;;;;;;;1.83;1.07;;;23.10;98.50;;;;;;4978214;28;20442;-43
2022/05/22 08:26:52;;;;;;;1.40;1.03;;;22.90;98.00;;;;;;4979481;28;20415;-46
2022/05/22 08:29:20;;;;;;;1.10;0.80;;;22.10;98.30;;;;;;4982892;28;20479;-41
2022/05/22 08:31:47;;;;;;;0.97;0.90;;;21.30;99.90;;;;;;4983560;28;20711;-44
2022/05/22 08:34:14;;;;;;;6.13;1.97;;;21.10;99.90;;;;;;4980686;28;20451;-43
2022/05/22 08:36:42;;;;;;;1.57;0.87;;;21.00;99.90;;;;;;4960901;28;20430;-43
2022/05/22 08:39:09;;;;;;;1.67;1.50;;;20.20;99.90;;;;;;4978209;28;20563;-43
2022/05/22 08:41:46;;;;;;;0.90;0.90;;;19.90;99.90;;;;;;4978171;28;20481;-41
2022/05/22 08:44:21;;;;;;;0.90;0.73;;;19.40;99.90;;;;;;4977628;28;20796;-46
2022/05/22 08:47:24;;;;;;;3.80;1.77;;;19.20;99.90;;;;;;4977958;28;20434;-43
2022/05/22 08:50:03;;;;;;;1.50;0.80;;;19.40;99.90;;;;;;4970835;28;20433;-45
2022/05/22 08:52:30;;;;;;;1.03;1.00;;;20.00;99.90;;;;;;4978059;28;20489;-42
2022/05/22 08:55:11;;;;;;;1.40;1.20;;;20.30;99.90;;;;;;4978209;28;20707;-43
2022/05/22 09:00:56;;;;;;;0.80;0.80;;;20.50;99.90;;;;;;4978697;28;20838;-43
2022/05/22 09:03:32;;;;;;;2.00;0.80;;;20.30;99.90;;;;;;4977386;28;20406;-42
2022/05/22 09:06:04;;;;;;;3.03;1.17;;;20.40;99.90;;;;;;4994960;28;20429;-41
2022/05/22 09:08:40;;;;;;;0.80;0.80;;;20.90;99.90;;;;;;4981878;28;20519;-45
2022/05/22 09:11:22;;;;;;;1.53;0.97;;;21.30;99.90;;;;;;4981204;28;20808;-44
2022/05/22 09:14:02;;;;;;;1.13;1.03;;;22.00;99.90;;;;;;4981119;28;20637;-45
2022/05/22 09:16:40;;;;;;;2.70;1.63;;;22.00;99.90;;;;;;4983224;28;20532;-42
2022/05/22 09:19:25;;;;;;;1.20;0.90;;;21.60;99.90;;;;;;4975964;28;20535;-43
2022/05/22 09:21:52;;;;;;;1.03;1.00;;;21.00;99.90;;;;;;4978122;28;20442;-45
2022/05/22 09:24:35;;;;;;;5.70;1.13;;;20.80;99.90;;;;;;4978374;28;20417;-42
2022/05/22 09:27:21;;;;;;;1.17;0.90;;;20.70;99.90;;;;;;4977739;28;20427;-44
2022/05/22 09:30:05;;;;;;;0.80;0.80;;;20.70;99.90;;;;;;4981107;28;20435;-42
2022/05/22 09:32:56;;;;;;;1.13;0.83;;;20.30;99.90;;;;;;4986816;28;20486;-45
2022/05/22 09:35:36;;;;;;;1.40;0.80;;;20.10;99.90;;;;;;4995381;28;20800;-46
2022/05/22 09:38:29;;;;;;;2.03;1.27;;;20.10;99.90;;;;;;5005134;28;20726;-43
2022/05/22 09:41:04;;;;;;;0.60;0.60;;;21.00;99.90;;;;;;4988594;28;20430;-43
2022/05/22 09:44:05;;;;;;;1.80;0.83;;;21.40;99.90;;;;;;4989959;28;20533;-43
2022/05/22 09:47:07;;;;;;;3.83;0.93;;;22.00;98.70;;;;;;4992318;28;20405;-44
2022/05/22 09:50:16;;;;;;;1.93;1.13;;;21.40;99.10;;;;;;4991114;28;20767;-45
2022/05/22 09:53:03;;;;;;;1.43;0.60;;;20.60;99.90;;;;;;4976968;28;20778;-45
2022/05/22 09:56:02;;;;;;;1.83;1.07;;;19.70;99.90;;;;;;4983969;28;20801;-42
2022/05/22 09:59:20;;;;;;;0.83;0.83;;;19.20;99.90;;;;;;4954430;28;20494;-43
2022/05/22 10:01:55;;;;;;;2.60;1.10;;;19.10;99.90;;;;;;4966020;28;20467;-42
2022/05/22 10:04:52;;;;;;;1.43;0.87;;;19.20;99.90;;;;;;4987456;28;20449;-45
2022/05/22 10:07:19;;;;;;;0.70;0.70;;;19.20;99.90;;;;;;4980970;28;20995;-44
2022/05/22 10:10:08;;;;;;;0.90;0.90;;;19.80;99.90;;;;;;4979589;28;20494;-43
2022/05/22 10:12:51;;;;;;;1.70;1.30;;;19.80;99.90;;;;;;4983718;28;20530;-43
2022/05/22 10:15:25;;;;;;;1.03;0.90;;;19.30;99.90;;;;;;4986375;28;20772;-44
2022/05/22 10:18:08;;;;;;;1.07;1.00;;;19.20;99.90;;;;;;5001843;28;20473;-44
2022/05/22 10:21:10;;;;;;;1.63;1.43;;;19.10;99.90;;;;;;4994933;28;20663;-43
2022/05/22 10:24:18;;;;;;;0.70;0.70;;;19.20;99.90;;;;;;4987920;28;20672;-44
2022/05/22 10:27:23;;;;;;;1.33;0.90;;;19.60;99.90;;;;;;4991962;28;20787;-45
2022/05/22 10:30:13;;;;;;;1.03;0.93;;;20.10;99.90;;;;;;4995340;28;20461;-44
2022/05/22 10:32:51;;;;;;;0.70;0.70;;;20.80;99.90;;;;;;4992906;28;20689;-42
2022/05/22 10:35:33;;;;;;;0.70;0.70;;;20.80;99.90;;;;;;4995676;28;20501;-44
2022/05/22 10:38:08;;;;;;;2.30;0.70;;;20.90;99.90;;;;;;4995303;28;20613;-41
2022/05/22 10:43:28;;;;;;;1.40;1.00;;;20.60;99.90;;;;;;4996581;28;20529;-41
2022/05/22 10:45:59;;;;;;;0.80;0.80;;;19.90;99.90;;;;;;4991904;28;20800;-42
2022/05/22 10:48:27;;;;;;;1.63;1.00;;;19.60;99.90;;;;;;4981136;28;20527;-42
2022/05/22 10:50:58;;;;;;;2.23;1.03;;;19.60;99.90;;;;;;4998184;28;21016;-42
2022/05/22 10:53:31;;;;;;;1.57;1.20;;;19.40;99.90;;;;;;5011830;28;20513;-43
2022/05/22 10:56:15;;;;;;;1.17;0.90;;;19.60;99.90;;;;;;5015272;28;20639;-44
2022/05/22 10:59:01;;;;;;;5.53;1.67;;;19.60;99.90;;;;;;4994992;28;20510;-47
2022/05/22 11:01:31;;;;;;;1.20;0.97;;;19.60;99.90;;;;;;5015668;28;20886;-42
2022/05/22 11:04:06;;;;;;;0.83;0.80;;;19.80;99.90;;;;;;5012986;28;20408;-42
2022/05/22 11:06:54;;;;;;;0.83;0.83;;;19.50;99.90;;;;;;4985718;28;20442;-44
2022/05/22 11:09:51;;;;;;;0.70;0.70;;;19.50;99.90;;;;;;4983657;28;20422;-43
2022/05/22 11:12:24;;;;;;;1.03;1.00;;;19.20;99.90;;;;;;4983032;28;20446;-45
2022/05/22 11:15:08;;;;;;;2.40;1.33;;;19.20;99.90;;;;;;4979030;28;20483;-43
2022/05/22 11:17:35;;;;;;;0.97;0.93;;;19.10;99.90;;;;;;4988246;28;20447;-44
2022/05/22 11:20:17;;;;;;;0.90;0.90;;;19.40;99.90;;;;;;4979149;28;20529;-43
2022/05/22 11:23:21;;;;;;;1.60;0.93;;;19.90;99.90;;;;;;4994903;28;20474;-43
2022/05/22 11:26:29;;;;;;;1.37;0.93;;;20.00;99.90;;;;;;4975018;28;20427;-43
2022/05/22 11:29:02;;;;;;;0.80;0.80;;;20.50;99.90;;;;;;4999082;28;20453;-41
2022/05/22 11:32:07;;;;;;;0.73;0.73;;;21.00;99.90;;;;;;5009469;28;20899;-42
2022/05/22 11:35:04;;;;;;;0.80;0.80;;;21.30;99.90;;;;;;5005332;28;20429;-42
2022/05/22 11:37:58;;;;;;;1.97;1.77;;;21.50;99.90;;;;;;4995734;28;20515;-44
2022/05/22 11:40:48;;;;;;;1.33;1.13;;;21.00;99.90;;;;;;4996593;28;20530;-44
2022/05/22 11:43:36;;;;;;;1.07;0.90;;;20.90;99.90;;;;;;5006385;28;20795;-43
2022/05/22 11:46:17;;;;;;;1.37;0.90;;;20.40;99.90;;;;;;4997611;28;20462;-45
2022/05/22 11:49:12;;;;;;;1.00;0.80;;;20.50;99.90;;;;;;5006289;28;20805;-42
2022/05/22 11:52:53;;;;;;;4.10;1.20;;;20.50;99.90;;;;;;4997145;28;20446;-42
2022/05/22 11:55:06;;;;;;;1.10;1.00;;;20.30;99.90;;;;;;4994909;28;20443;-46
2022/05/22 11:57:36;;;;;;;1.47;1.27;;;20.10;99.90;;;;;;4994811;28;20715;-45
2022/05/22 12:00:14;;;;;;;1.30;1.00;;;19.90;99.90;;;;;;5004120;28;20528;-40
2022/05/22 12:02:53;;;;;;;2.60;1.23;;;19.60;99.90;;;;;;5006269;28;20454;-43
2022/05/22 12:05:23;;;;;;;1.10;0.93;;;19.80;99.90;;;;;;5009023;28;20452;-42
2022/05/22 12:08:19;;;;;;;2.00;0.70;;;20.00;99.90;;;;;;4997767;28;20481;-47
2022/05/22 12:10:57;;;;;;;1.20;0.97;;;20.60;99.90;;;;;;4992031;28;20425;-43
2022/05/22 12:13:39;;;;;;;2.00;0.73;;;20.50;99.90;;;;;;5001459;28;20401;-42
2022/05/22 12:16:15;;;;;;;1.17;1.07;;;19.70;99.90;;;;;;4989850;28;20781;-41
2022/05/22 12:18:48;;;;;;;1.40;1.30;;;19.70;99.90;;;;;;4982300;28;20457;-44
2022/05/22 12:21:32;;;;;;;1.43;1.33;;;19.80;99.90;;;;;;4997541;28;20436;-42
2022/05/22 12:24:26;;;;;;;2.17;1.60;;;20.00;99.90;;;;;;4997251;28;20470;-42
2022/05/22 12:26:54;;;;;;;1.73;1.63;;;20.20;99.90;;;;;;4996628;28;20490;-43
2022/05/22 12:29:41;;;;;;;2.37;1.30;;;20.20;99.90;;;;;;4997918;28;20507;-42
2022/05/22 12:32:22;;;;;;;0.80;0.80;;;20.30;99.90;;;;;;4997406;28;20471;-45
2022/05/22 12:34:52;;;;;;;1.60;1.50;;;20.60;99.90;;;;;;5002382;28;20470;-48
2022/05/22 12:37:36;;;;;;;1.23;0.90;;;20.50;99.90;;;;;;4995387;28;20902;-46
2022/05/22 12:40:11;;;;;;;1.47;1.13;;;20.10;99.90;;;;;;5000963;28;20493;-44
2022/05/22 12:42:44;;;;;;;0.90;0.80;;;19.80;99.90;;;;;;4998095;28;20569;-44
2022/05/22 12:45:13;;;;;;;1.57;1.00;;;19.80;99.90;;;;;;4988858;28;20647;-43
2022/05/22 12:47:46;;;;;;;1.60;1.20;;;20.40;99.90;;;;;;4978330;28;20455;-43
2022/05/22 12:50:51;;;;;;;0.97;0.97;;;20.70;99.90;;;;;;4985200;28;20877;-43
2022/05/22 12:53:30;;;;;;;2.23;1.17;;;21.20;99.90;;;;;;4997863;28;20421;-43
2022/05/22 12:56:40;;;;;;;1.60;1.50;;;21.60;99.90;;;;;;4996626;28;20835;-42
2022/05/22 12:59:23;;;;;;;5.50;1.30;;;21.60;99.60;;;;;;4924787;29;20549;-43
2022/05/22 13:01:55;;;;;;;1.93;1.20;;;21.60;99.90;;;;;;4975188;28;20464;-45
2022/05/22 13:04:31;;;;;;;1.67;1.07;;;21.50;99.90;;;;;;4982863;28;20416;-46
2022/05/22 13:07:03;;;;;;;2.33;1.27;;;21.70;99.10;;;;;;4982229;28;20423;-41
2022/05/22 13:09:40;;;;;;;2.97;1.17;;;21.60;99.30;;;;;;5003130;28;20450;-43
2022/05/22 13:12:13;;;;;;;1.40;1.23;;;21.30;99.20;;;;;;4997932;28;20734;-43
2022/05/22 13:14:54;;;;;;;1.50;1.40;;;20.70;99.40;;;;;;4997954;28;20449;-43
2022/05/22 13:17:30;;;;;;;1.10;1.00;;;20.50;99.80;;;;;;4998184;28;20496;-42
2022/05/22 13:20:02;;;;;;;3.03;1.20;;;20.50;99.40;;;;;;4997860;28;20484;-44
2022/05/22 13:22:36;;;;;;;2.97;1.50;;;20.40;99.90;;;;;;4997688;28;20455;-42
2022/05/22 13:25:24;;;;;;;2.10;1.50;;;20.40;99.90;;;;;;4997778;28;20514;-44
2022/05/22 13:27:51;;;;;;;2.87;1.20;;;20.60;99.70;;;;;;4998901;28;20774;-41
2022/05/22 13:30:32;;;;;;;5.60;1.70;;;20.50;99.70;;;;;;5009054;28;20438;-45
2022/05/22 13:33:07;;;;;;;1.03;1.03;;;20.60;99.90;;;;;;5017151;28;20477;-43
2022/05/22 13:35:48;;;;;;;1.83;0.93;;;20.10;99.90;;;;;;5017057;28;20420;-43
2022/05/22 13:38:17;;;;;;;2.80;1.73;;;19.80;99.90;;;;;;5016775;28;20502;-45